sensor_id;sensor_type;location;lat;lon;timestamp;temperature;humidity
43089;DHT22;28709;52.030;5.652;2024-01-27T00:01:32;3.30;99.90
43089;DHT22;28709;52.030;5.652;2024-01-27T00:03:58;3.30;99.90
43089;DHT22;28709;52.030;5.652;2024-01-27T00:06:23;3.30;99.90
43089;DHT22;28709;52.030;5.652;2024-01-27T00:08:49;3.30;99.90
43089;DHT22;28709;52.030;5.652;2024-01-27T00:11:15;3.30;99.90
43089;DHT22;28709;52.030;5.652;2024-01-27T00:13:41;3.30;99.90
43089;DHT22;28709;52.030;5.652;2024-01-27T00:16:07;3.20;99.90
43089;DHT22;28709;52.030;5.652;2024-01-27T00:18:32;3.20;99.90
43089;DHT22;28709;52.030;5.652;2024-01-27T00:20:58;3.10;99.90
43089;DHT22;28709;52.030;5.652;2024-01-27T00:23:23;3.10;99.90
43089;DHT22;28709;52.030;5.652;2024-01-27T00:25:49;3.10;99.90
43089;DHT22;28709;52.030;5.652;2024-01-27T00:28:15;3.10;99.90
43089;DHT22;28709;52.030;5.652;2024-01-27T00:30:40;3.10;99.90
43089;DHT22;28709;52.030;5.652;2024-01-27T00:33:06;3.10;99.90
43089;DHT22;28709;52.030;5.652;2024-01-27T00:35:31;3.10;99.90
43089;DHT22;28709;52.030;5.652;2024-01-27T00:37:57;3.00;99.90
43089;DHT22;28709;52.030;5.652;2024-01-27T00:40:23;3.00;99.90
43089;DHT22;28709;52.030;5.652;2024-01-27T00:42:49;3.00;99.90
43089;DHT22;28709;52.030;5.652;2024-01-27T00:45:14;3.10;99.90
43089;DHT22;28709;52.030;5.652;2024-01-27T00:47:40;3.00;99.90
43089;DHT22;28709;52.030;5.652;2024-01-27T00:50:06;3.00;99.90
43089;DHT22;28709;52.030;5.652;2024-01-27T00:52:34;3.00;99.90
43089;DHT22;28709;52.030;5.652;2024-01-27T00:55:00;3.00;99.90
43089;DHT22;28709;52.030;5.652;2024-01-27T00:57:25;3.00;99.90
43089;DHT22;28709;52.030;5.652;2024-01-27T00:59:51;3.00;99.90
43089;DHT22;28709;52.030;5.652;2024-01-27T01:02:17;3.00;99.90
43089;DHT22;28709;52.030;5.652;2024-01-27T01:04:42;3.00;99.90
43089;DHT22;28709;52.030;5.652;2024-01-27T01:07:08;3.00;99.90
43089;DHT22;28709;52.030;5.652;2024-01-27T01:09:34;3.00;99.90
43089;DHT22;28709;52.030;5.652;2024-01-27T01:12:00;3.00;99.90
43089;DHT22;28709;52.030;5.652;2024-01-27T01:14:25;3.00;99.90
43089;DHT22;28709;52.030;5.652;2024-01-27T01:16:51;3.00;99.90
43089;DHT22;28709;52.030;5.652;2024-01-27T01:19:17;2.90;99.90
43089;DHT22;28709;52.030;5.652;2024-01-27T01:21:42;2.90;99.90
43089;DHT22;28709;52.030;5.652;2024-01-27T01:24:09;2.90;99.90
43089;DHT22;28709;52.030;5.652;2024-01-27T01:26:34;2.90;99.90
43089;DHT22;28709;52.030;5.652;2024-01-27T01:29:00;2.90;99.90
43089;DHT22;28709;52.030;5.652;2024-01-27T01:31:26;3.00;99.90
43089;DHT22;28709;52.030;5.652;2024-01-27T01:33:51;3.00;99.90
43089;DHT22;28709;52.030;5.652;2024-01-27T01:36:17;3.00;99.90
43089;DHT22;28709;52.030;5.652;2024-01-27T01:38:43;3.00;99.90
43089;DHT22;28709;52.030;5.652;2024-01-27T01:41:08;2.90;99.90
43089;DHT22;28709;52.030;5.652;2024-01-27T01:43:34;3.00;99.90
43089;DHT22;28709;52.030;5.652;2024-01-27T01:46:00;2.90;99.90
43089;DHT22;28709;52.030;5.652;2024-01-27T01:48:26;2.90;99.90
43089;DHT22;28709;52.030;5.652;2024-01-27T01:50:51;2.90;99.90
43089;DHT22;28709;52.030;5.652;2024-01-27T01:53:18;2.90;99.90
43089;DHT22;28709;52.030;5.652;2024-01-27T01:55:43;2.80;99.90
43089;DHT22;28709;52.030;5.652;2024-01-27T01:58:09;2.80;99.90
43089;DHT22;28709;52.030;5.652;2024-01-27T02:00:35;2.80;99.90
43089;DHT22;28709;52.030;5.652;2024-01-27T02:03:00;2.80;99.90
43089;DHT22;28709;52.030;5.652;2024-01-27T02:05:26;2.80;99.90
43089;DHT22;28709;52.030;5.652;2024-01-27T02:07:52;2.80;99.90
43089;DHT22;28709;52.030;5.652;2024-01-27T02:10:21;2.80;99.90
43089;DHT22;28709;52.030;5.652;2024-01-27T02:12:47;2.80;99.90
43089;DHT22;28709;52.030;5.652;2024-01-27T02:15:13;2.80;99.90
43089;DHT22;28709;52.030;5.652;2024-01-27T02:17:42;2.70;99.90
43089;DHT22;28709;52.030;5.652;2024-01-27T02:20:08;2.70;99.90
43089;DHT22;28709;52.030;5.652;2024-01-27T02:22:34;2.70;99.90
43089;DHT22;28709;52.030;5.652;2024-01-27T02:25:00;2.60;99.90
43089;DHT22;28709;52.030;5.652;2024-01-27T02:27:26;2.50;99.90
43089;DHT22;28709;52.030;5.652;2024-01-27T02:29:52;2.40;99.90
43089;DHT22;28709;52.030;5.652;2024-01-27T02:32:18;2.30;99.90
43089;DHT22;28709;52.030;5.652;2024-01-27T02:34:43;2.30;99.90
43089;DHT22;28709;52.030;5.652;2024-01-27T02:37:09;2.30;99.90
43089;DHT22;28709;52.030;5.652;2024-01-27T02:39:35;2.30;99.90
43089;DHT22;28709;52.030;5.652;2024-01-27T02:42:01;2.30;99.90
43089;DHT22;28709;52.030;5.652;2024-01-27T02:44:27;2.30;99.90
43089;DHT22;28709;52.030;5.652;2024-01-27T02:46:53;2.40;99.90
43089;DHT22;28709;52.030;5.652;2024-01-27T02:49:18;2.40;99.90
43089;DHT22;28709;52.030;5.652;2024-01-27T02:51:44;2.40;99.90
43089;DHT22;28709;52.030;5.652;2024-01-27T02:54:10;2.30;99.90
43089;DHT22;28709;52.030;5.652;2024-01-27T02:56:35;2.30;99.90
43089;DHT22;28709;52.030;5.652;2024-01-27T02:59:01;2.30;99.90
43089;DHT22;28709;52.030;5.652;2024-01-27T03:01:27;2.40;99.90
43089;DHT22;28709;52.030;5.652;2024-01-27T03:03:52;2.40;99.90
43089;DHT22;28709;52.030;5.652;2024-01-27T03:06:18;2.40;99.90
43089;DHT22;28709;52.030;5.652;2024-01-27T03:08:44;2.40;99.90
43089;DHT22;28709;52.030;5.652;2024-01-27T03:11:09;2.40;99.90
43089;DHT22;28709;52.030;5.652;2024-01-27T03:13:35;2.30;99.90
43089;DHT22;28709;52.030;5.652;2024-01-27T03:16:00;2.30;99.90
43089;DHT22;28709;52.030;5.652;2024-01-27T03:18:26;2.30;99.90
43089;DHT22;28709;52.030;5.652;2024-01-27T03:20:52;2.30;99.90
43089;DHT22;28709;52.030;5.652;2024-01-27T03:23:17;2.30;99.90
43089;DHT22;28709;52.030;5.652;2024-01-27T03:25:43;2.30;99.90
43089;DHT22;28709;52.030;5.652;2024-01-27T03:28:09;2.30;99.90
43089;DHT22;28709;52.030;5.652;2024-01-27T03:30:34;2.40;99.90
43089;DHT22;28709;52.030;5.652;2024-01-27T03:33:00;2.40;99.90
43089;DHT22;28709;52.030;5.652;2024-01-27T03:35:25;2.40;99.90
43089;DHT22;28709;52.030;5.652;2024-01-27T03:37:51;2.40;99.90
43089;DHT22;28709;52.030;5.652;2024-01-27T03:40:17;2.40;99.90
43089;DHT22;28709;52.030;5.652;2024-01-27T03:42:43;2.40;99.90
43089;DHT22;28709;52.030;5.652;2024-01-27T03:45:09;2.40;99.90
43089;DHT22;28709;52.030;5.652;2024-01-27T03:47:34;2.40;99.90
43089;DHT22;28709;52.030;5.652;2024-01-27T03:50:00;2.40;99.90
43089;DHT22;28709;52.030;5.652;2024-01-27T03:52:26;2.40;99.90
43089;DHT22;28709;52.030;5.652;2024-01-27T03:54:51;2.40;99.90
43089;DHT22;28709;52.030;5.652;2024-01-27T03:57:17;2.30;99.90
43089;DHT22;28709;52.030;5.652;2024-01-27T03:59:43;2.30;99.90
43089;DHT22;28709;52.030;5.652;2024-01-27T04:02:08;2.20;99.90
43089;DHT22;28709;52.030;5.652;2024-01-27T04:04:34;2.20;99.90
43089;DHT22;28709;52.030;5.652;2024-01-27T04:06:59;2.20;99.90
43089;DHT22;28709;52.030;5.652;2024-01-27T04:09:27;2.20;99.90
43089;DHT22;28709;52.030;5.652;2024-01-27T04:11:53;2.20;99.90
43089;DHT22;28709;52.030;5.652;2024-01-27T04:14:18;2.20;99.90
43089;DHT22;28709;52.030;5.652;2024-01-27T04:16:44;2.10;99.90
43089;DHT22;28709;52.030;5.652;2024-01-27T04:19:09;2.20;99.90
43089;DHT22;28709;52.030;5.652;2024-01-27T04:21:35;2.20;99.90
43089;DHT22;28709;52.030;5.652;2024-01-27T04:24:01;2.10;99.90
43089;DHT22;28709;52.030;5.652;2024-01-27T04:26:26;2.10;99.90
43089;DHT22;28709;52.030;5.652;2024-01-27T04:28:52;2.10;99.90
43089;DHT22;28709;52.030;5.652;2024-01-27T04:31:18;2.10;99.90
43089;DHT22;28709;52.030;5.652;2024-01-27T04:33:43;2.10;99.90
43089;DHT22;28709;52.030;5.652;2024-01-27T04:36:10;2.10;99.90
43089;DHT22;28709;52.030;5.652;2024-01-27T04:38:36;2.00;99.90
43089;DHT22;28709;52.030;5.652;2024-01-27T04:41:01;2.00;99.90
43089;DHT22;28709;52.030;5.652;2024-01-27T04:43:28;1.90;99.90
43089;DHT22;28709;52.030;5.652;2024-01-27T04:45:54;1.90;99.90
43089;DHT22;28709;52.030;5.652;2024-01-27T04:48:20;1.80;99.90
43089;DHT22;28709;52.030;5.652;2024-01-27T04:50:46;1.80;99.90
43089;DHT22;28709;52.030;5.652;2024-01-27T04:53:12;1.70;99.90
43089;DHT22;28709;52.030;5.652;2024-01-27T04:55:38;1.70;99.90
43089;DHT22;28709;52.030;5.652;2024-01-27T04:58:04;1.70;99.90
43089;DHT22;28709;52.030;5.652;2024-01-27T05:00:30;1.80;99.90
43089;DHT22;28709;52.030;5.652;2024-01-27T05:02:56;1.80;99.90
43089;DHT22;28709;52.030;5.652;2024-01-27T05:05:23;1.70;99.90
43089;DHT22;28709;52.030;5.652;2024-01-27T05:07:48;1.80;99.90
43089;DHT22;28709;52.030;5.652;2024-01-27T05:10:17;1.70;99.90
43089;DHT22;28709;52.030;5.652;2024-01-27T05:12:43;1.80;99.90
43089;DHT22;28709;52.030;5.652;2024-01-27T05:15:10;1.80;99.90
43089;DHT22;28709;52.030;5.652;2024-01-27T05:17:36;1.80;99.90
43089;DHT22;28709;52.030;5.652;2024-01-27T05:20:02;1.80;99.90
43089;DHT22;28709;52.030;5.652;2024-01-27T05:22:29;1.80;99.90
43089;DHT22;28709;52.030;5.652;2024-01-27T05:24:55;1.80;99.90
43089;DHT22;28709;52.030;5.652;2024-01-27T05:27:21;1.80;99.90
43089;DHT22;28709;52.030;5.652;2024-01-27T05:29:46;1.90;99.90
43089;DHT22;28709;52.030;5.652;2024-01-27T05:32:12;1.90;99.90
43089;DHT22;28709;52.030;5.652;2024-01-27T05:34:37;1.90;99.90
43089;DHT22;28709;52.030;5.652;2024-01-27T05:37:03;1.90;99.90
43089;DHT22;28709;52.030;5.652;2024-01-27T05:39:29;1.90;99.90
43089;DHT22;28709;52.030;5.652;2024-01-27T05:41:55;1.90;99.90
43089;DHT22;28709;52.030;5.652;2024-01-27T05:44:20;1.90;99.90
43089;DHT22;28709;52.030;5.652;2024-01-27T05:46:46;2.00;99.90
43089;DHT22;28709;52.030;5.652;2024-01-27T05:49:12;1.90;99.90
43089;DHT22;28709;52.030;5.652;2024-01-27T05:51:38;2.00;99.90
43089;DHT22;28709;52.030;5.652;2024-01-27T05:54:03;2.00;99.90
43089;DHT22;28709;52.030;5.652;2024-01-27T05:56:29;1.90;99.90
43089;DHT22;28709;52.030;5.652;2024-01-27T05:58:55;1.90;99.90
43089;DHT22;28709;52.030;5.652;2024-01-27T06:01:20;1.90;99.90
43089;DHT22;28709;52.030;5.652;2024-01-27T06:03:46;1.90;99.90
43089;DHT22;28709;52.030;5.652;2024-01-27T06:06:12;1.90;99.90
43089;DHT22;28709;52.030;5.652;2024-01-27T06:08:38;1.90;99.90
43089;DHT22;28709;52.030;5.652;2024-01-27T06:11:03;1.90;99.90
43089;DHT22;28709;52.030;5.652;2024-01-27T06:13:29;1.80;99.90
43089;DHT22;28709;52.030;5.652;2024-01-27T06:15:55;1.80;99.90
43089;DHT22;28709;52.030;5.652;2024-01-27T06:18:20;1.80;99.90
43089;DHT22;28709;52.030;5.652;2024-01-27T06:20:46;1.80;99.90
43089;DHT22;28709;52.030;5.652;2024-01-27T06:23:12;1.80;99.90
43089;DHT22;28709;52.030;5.652;2024-01-27T06:25:38;1.80;99.90
43089;DHT22;28709;52.030;5.652;2024-01-27T06:28:03;1.80;99.90
43089;DHT22;28709;52.030;5.652;2024-01-27T06:30:29;1.70;99.90
43089;DHT22;28709;52.030;5.652;2024-01-27T06:32:55;1.70;99.90
43089;DHT22;28709;52.030;5.652;2024-01-27T06:35:20;1.70;99.90
43089;DHT22;28709;52.030;5.652;2024-01-27T06:37:46;1.70;99.90
43089;DHT22;28709;52.030;5.652;2024-01-27T06:40:12;1.60;99.90
43089;DHT22;28709;52.030;5.652;2024-01-27T06:42:38;1.60;99.90
43089;DHT22;28709;52.030;5.652;2024-01-27T06:45:04;1.60;99.90
43089;DHT22;28709;52.030;5.652;2024-01-27T06:47:30;1.60;99.90
43089;DHT22;28709;52.030;5.652;2024-01-27T06:49:56;1.60;99.90
43089;DHT22;28709;52.030;5.652;2024-01-27T06:52:22;1.50;99.90
43089;DHT22;28709;52.030;5.652;2024-01-27T06:54:47;1.50;99.90
43089;DHT22;28709;52.030;5.652;2024-01-27T06:57:20;1.50;99.90
43089;DHT22;28709;52.030;5.652;2024-01-27T06:59:49;1.50;99.90
43089;DHT22;28709;52.030;5.652;2024-01-27T07:02:28;1.50;99.90
43089;DHT22;28709;52.030;5.652;2024-01-27T07:04:56;1.50;99.90
43089;DHT22;28709;52.030;5.652;2024-01-27T07:07:26;1.50;99.90
43089;DHT22;28709;52.030;5.652;2024-01-27T07:09:55;1.50;99.90
43089;DHT22;28709;52.030;5.652;2024-01-27T07:12:21;1.60;99.90
43089;DHT22;28709;52.030;5.652;2024-01-27T07:14:47;1.60;99.90
43089;DHT22;28709;52.030;5.652;2024-01-27T07:17:12;1.60;99.90
43089;DHT22;28709;52.030;5.652;2024-01-27T07:19:38;1.60;99.90
43089;DHT22;28709;52.030;5.652;2024-01-27T07:22:04;1.60;99.90
43089;DHT22;28709;52.030;5.652;2024-01-27T07:24:30;1.60;99.90
43089;DHT22;28709;52.030;5.652;2024-01-27T07:26:55;1.70;99.90
43089;DHT22;28709;52.030;5.652;2024-01-27T07:29:21;1.60;99.90
43089;DHT22;28709;52.030;5.652;2024-01-27T07:31:47;1.60;99.90
43089;DHT22;28709;52.030;5.652;2024-01-27T07:34:13;1.60;99.90
43089;DHT22;28709;52.030;5.652;2024-01-27T07:36:38;1.70;99.90
43089;DHT22;28709;52.030;5.652;2024-01-27T07:39:04;1.70;99.90
43089;DHT22;28709;52.030;5.652;2024-01-27T07:41:30;1.70;99.90
43089;DHT22;28709;52.030;5.652;2024-01-27T07:43:56;1.70;99.90
43089;DHT22;28709;52.030;5.652;2024-01-27T07:46:22;1.70;99.90
43089;DHT22;28709;52.030;5.652;2024-01-27T07:48:50;1.80;99.90
43089;DHT22;28709;52.030;5.652;2024-01-27T07:51:16;1.70;99.90
43089;DHT22;28709;52.030;5.652;2024-01-27T07:53:42;1.80;99.90
43089;DHT22;28709;52.030;5.652;2024-01-27T07:56:08;1.80;99.90
43089;DHT22;28709;52.030;5.652;2024-01-27T07:58:33;1.80;99.90
43089;DHT22;28709;52.030;5.652;2024-01-27T08:00:59;1.90;99.90
43089;DHT22;28709;52.030;5.652;2024-01-27T08:03:25;1.90;99.90
43089;DHT22;28709;52.030;5.652;2024-01-27T08:05:51;1.90;99.90
43089;DHT22;28709;52.030;5.652;2024-01-27T08:08:17;2.00;99.90
43089;DHT22;28709;52.030;5.652;2024-01-27T08:10:43;2.00;99.90
43089;DHT22;28709;52.030;5.652;2024-01-27T08:13:09;2.10;99.90
43089;DHT22;28709;52.030;5.652;2024-01-27T08:15:35;2.10;99.90
43089;DHT22;28709;52.030;5.652;2024-01-27T08:18:00;2.10;99.90
43089;DHT22;28709;52.030;5.652;2024-01-27T08:20:26;2.20;99.90
43089;DHT22;28709;52.030;5.652;2024-01-27T08:22:51;2.20;99.90
43089;DHT22;28709;52.030;5.652;2024-01-27T08:25:18;2.30;99.90
43089;DHT22;28709;52.030;5.652;2024-01-27T08:27:44;2.30;99.90
43089;DHT22;28709;52.030;5.652;2024-01-27T08:30:10;2.30;99.90
43089;DHT22;28709;52.030;5.652;2024-01-27T08:32:37;2.40;99.90
43089;DHT22;28709;52.030;5.652;2024-01-27T08:35:02;2.40;99.90
43089;DHT22;28709;52.030;5.652;2024-01-27T08:37:28;2.50;99.90
43089;DHT22;28709;52.030;5.652;2024-01-27T08:39:54;2.50;99.90
43089;DHT22;28709;52.030;5.652;2024-01-27T08:42:19;2.60;99.90
43089;DHT22;28709;52.030;5.652;2024-01-27T08:44:45;2.60;99.90
43089;DHT22;28709;52.030;5.652;2024-01-27T08:47:11;2.70;99.90
43089;DHT22;28709;52.030;5.652;2024-01-27T08:49:36;2.70;99.90
43089;DHT22;28709;52.030;5.652;2024-01-27T08:52:02;2.80;99.90
43089;DHT22;28709;52.030;5.652;2024-01-27T08:54:28;2.90;99.90
43089;DHT22;28709;52.030;5.652;2024-01-27T08:56:53;2.90;99.90
43089;DHT22;28709;52.030;5.652;2024-01-27T08:59:19;3.00;99.90
43089;DHT22;28709;52.030;5.652;2024-01-27T09:01:45;3.10;99.90
43089;DHT22;28709;52.030;5.652;2024-01-27T09:04:10;3.20;99.90
43089;DHT22;28709;52.030;5.652;2024-01-27T09:06:36;3.20;99.90
43089;DHT22;28709;52.030;5.652;2024-01-27T09:09:01;3.30;99.90
43089;DHT22;28709;52.030;5.652;2024-01-27T09:11:28;3.50;99.90
43089;DHT22;28709;52.030;5.652;2024-01-27T09:13:56;3.50;99.90
43089;DHT22;28709;52.030;5.652;2024-01-27T09:16:21;3.70;99.90
43089;DHT22;28709;52.030;5.652;2024-01-27T09:18:47;3.80;99.90
43089;DHT22;28709;52.030;5.652;2024-01-27T09:21:15;3.90;99.90
43089;DHT22;28709;52.030;5.652;2024-01-27T09:23:49;4.00;99.90
43089;DHT22;28709;52.030;5.652;2024-01-27T09:26:14;4.20;99.90
43089;DHT22;28709;52.030;5.652;2024-01-27T09:28:43;4.60;99.90
43089;DHT22;28709;52.030;5.652;2024-01-27T09:31:10;5.10;99.90
43089;DHT22;28709;52.030;5.652;2024-01-27T09:33:37;5.60;99.90
43089;DHT22;28709;52.030;5.652;2024-01-27T09:36:02;5.90;99.90
43089;DHT22;28709;52.030;5.652;2024-01-27T09:38:29;6.10;99.90
43089;DHT22;28709;52.030;5.652;2024-01-27T09:40:54;6.30;99.90
43089;DHT22;28709;52.030;5.652;2024-01-27T09:43:21;6.60;99.90
43089;DHT22;28709;52.030;5.652;2024-01-27T09:45:50;6.90;99.90
43089;DHT22;28709;52.030;5.652;2024-01-27T09:48:15;7.20;99.90
43089;DHT22;28709;52.030;5.652;2024-01-27T09:50:41;7.50;99.90
43089;DHT22;28709;52.030;5.652;2024-01-27T09:53:07;7.70;99.90
43089;DHT22;28709;52.030;5.652;2024-01-27T09:55:34;7.90;99.90
43089;DHT22;28709;52.030;5.652;2024-01-27T09:58:00;7.90;99.90
43089;DHT22;28709;52.030;5.652;2024-01-27T10:00:27;8.00;99.90
43089;DHT22;28709;52.030;5.652;2024-01-27T10:02:54;8.20;99.90
43089;DHT22;28709;52.030;5.652;2024-01-27T10:05:20;8.30;99.90
43089;DHT22;28709;52.030;5.652;2024-01-27T10:07:47;8.50;99.90
43089;DHT22;28709;52.030;5.652;2024-01-27T10:10:12;8.80;99.90
43089;DHT22;28709;52.030;5.652;2024-01-27T10:12:41;9.10;99.90
43089;DHT22;28709;52.030;5.652;2024-01-27T10:15:19;9.40;99.90
43089;DHT22;28709;52.030;5.652;2024-01-27T10:17:45;9.60;99.90
43089;DHT22;28709;52.030;5.652;2024-01-27T10:20:11;9.80;99.90
43089;DHT22;28709;52.030;5.652;2024-01-27T10:22:41;10.20;99.90
43089;DHT22;28709;52.030;5.652;2024-01-27T10:25:08;10.70;99.90
43089;DHT22;28709;52.030;5.652;2024-01-27T10:27:35;11.00;99.90
43089;DHT22;28709;52.030;5.652;2024-01-27T10:30:01;11.00;99.90
43089;DHT22;28709;52.030;5.652;2024-01-27T10:32:27;11.10;99.90
43089;DHT22;28709;52.030;5.652;2024-01-27T10:35:07;11.30;99.90
43089;DHT22;28709;52.030;5.652;2024-01-27T10:37:36;11.40;99.90
43089;DHT22;28709;52.030;5.652;2024-01-27T10:40:06;11.40;99.90
43089;DHT22;28709;52.030;5.652;2024-01-27T10:42:37;11.60;99.90
43089;DHT22;28709;52.030;5.652;2024-01-27T10:45:04;11.80;99.90
43089;DHT22;28709;52.030;5.652;2024-01-27T10:47:31;12.00;99.90
43089;DHT22;28709;52.030;5.652;2024-01-27T10:49:58;12.40;99.90
43089;DHT22;28709;52.030;5.652;2024-01-27T10:52:27;12.90;99.90
43089;DHT22;28709;52.030;5.652;2024-01-27T10:55:04;13.00;99.90
43089;DHT22;28709;52.030;5.652;2024-01-27T10:57:33;13.20;99.90
43089;DHT22;28709;52.030;5.652;2024-01-27T11:00:01;13.50;99.90
43089;DHT22;28709;52.030;5.652;2024-01-27T11:02:33;13.40;99.90
43089;DHT22;28709;52.030;5.652;2024-01-27T11:05:00;13.20;99.90
43089;DHT22;28709;52.030;5.652;2024-01-27T11:07:28;13.50;99.90
43089;DHT22;28709;52.030;5.652;2024-01-27T11:09:54;13.80;99.90
43089;DHT22;28709;52.030;5.652;2024-01-27T11:12:21;13.90;99.90
43089;DHT22;28709;52.030;5.652;2024-01-27T11:14:48;14.00;99.90
43089;DHT22;28709;52.030;5.652;2024-01-27T11:17:14;14.30;99.90
43089;DHT22;28709;52.030;5.652;2024-01-27T11:19:41;14.20;99.90
43089;DHT22;28709;52.030;5.652;2024-01-27T11:22:06;14.20;99.90
43089;DHT22;28709;52.030;5.652;2024-01-27T11:24:32;14.50;99.90
43089;DHT22;28709;52.030;5.652;2024-01-27T11:27:05;14.70;99.90
43089;DHT22;28709;52.030;5.652;2024-01-27T11:29:32;14.90;99.90
43089;DHT22;28709;52.030;5.652;2024-01-27T11:32:02;15.20;99.90
43089;DHT22;28709;52.030;5.652;2024-01-27T11:34:28;15.60;99.90
43089;DHT22;28709;52.030;5.652;2024-01-27T11:36:54;15.70;99.90
43089;DHT22;28709;52.030;5.652;2024-01-27T11:39:27;15.60;99.90
43089;DHT22;28709;52.030;5.652;2024-01-27T11:41:53;15.60;99.90
43089;DHT22;28709;52.030;5.652;2024-01-27T11:44:29;15.70;99.90
43089;DHT22;28709;52.030;5.652;2024-01-27T11:46:55;15.60;99.90
43089;DHT22;28709;52.030;5.652;2024-01-27T11:49:20;15.50;99.90
43089;DHT22;28709;52.030;5.652;2024-01-27T11:51:46;15.30;99.40
43089;DHT22;28709;52.030;5.652;2024-01-27T11:54:12;15.30;99.50
43089;DHT22;28709;52.030;5.652;2024-01-27T11:56:38;15.40;99.20
43089;DHT22;28709;52.030;5.652;2024-01-27T11:59:04;15.50;99.30
43089;DHT22;28709;52.030;5.652;2024-01-27T12:01:30;15.70;99.00
43089;DHT22;28709;52.030;5.652;2024-01-27T12:03:55;15.70;98.60
43089;DHT22;28709;52.030;5.652;2024-01-27T12:06:22;15.70;97.80
43089;DHT22;28709;52.030;5.652;2024-01-27T12:08:48;15.60;97.90
43089;DHT22;28709;52.030;5.652;2024-01-27T12:11:14;15.50;98.40
43089;DHT22;28709;52.030;5.652;2024-01-27T12:13:40;15.50;98.10
43089;DHT22;28709;52.030;5.652;2024-01-27T12:16:07;15.50;98.00
43089;DHT22;28709;52.030;5.652;2024-01-27T12:18:33;15.60;98.10
43089;DHT22;28709;52.030;5.652;2024-01-27T12:20:58;15.80;98.30
43089;DHT22;28709;52.030;5.652;2024-01-27T12:23:24;16.20;98.20
43089;DHT22;28709;52.030;5.652;2024-01-27T12:25:56;16.10;97.10
43089;DHT22;28709;52.030;5.652;2024-01-27T12:28:24;15.90;97.40
43089;DHT22;28709;52.030;5.652;2024-01-27T12:30:52;16.00;97.50
43089;DHT22;28709;52.030;5.652;2024-01-27T12:33:18;16.20;97.30
43089;DHT22;28709;52.030;5.652;2024-01-27T12:35:51;16.40;97.10
43089;DHT22;28709;52.030;5.652;2024-01-27T12:38:20;16.50;96.70
43089;DHT22;28709;52.030;5.652;2024-01-27T12:40:46;16.50;96.60
43089;DHT22;28709;52.030;5.652;2024-01-27T12:43:11;16.30;95.80
43089;DHT22;28709;52.030;5.652;2024-01-27T12:45:37;16.00;96.10
43089;DHT22;28709;52.030;5.652;2024-01-27T12:48:03;15.90;96.50
43089;DHT22;28709;52.030;5.652;2024-01-27T12:50:31;16.10;96.20
43089;DHT22;28709;52.030;5.652;2024-01-27T12:52:57;15.90;95.50
43089;DHT22;28709;52.030;5.652;2024-01-27T12:55:23;15.20;95.80
43089;DHT22;28709;52.030;5.652;2024-01-27T12:57:48;14.60;96.60
43089;DHT22;28709;52.030;5.652;2024-01-27T13:00:15;14.70;97.30
43089;DHT22;28709;52.030;5.652;2024-01-27T13:02:40;15.30;97.10
43089;DHT22;28709;52.030;5.652;2024-01-27T13:05:06;15.70;96.50
43089;DHT22;28709;52.030;5.652;2024-01-27T13:07:32;15.70;96.50
43089;DHT22;28709;52.030;5.652;2024-01-27T13:09:58;15.70;96.50
43089;DHT22;28709;52.030;5.652;2024-01-27T13:12:23;15.70;96.20
43089;DHT22;28709;52.030;5.652;2024-01-27T13:14:49;15.50;96.30
43089;DHT22;28709;52.030;5.652;2024-01-27T13:17:15;15.50;96.40
43089;DHT22;28709;52.030;5.652;2024-01-27T13:19:41;15.40;96.50
43089;DHT22;28709;52.030;5.652;2024-01-27T13:22:07;15.40;96.30
43089;DHT22;28709;52.030;5.652;2024-01-27T13:24:33;15.40;96.20
43089;DHT22;28709;52.030;5.652;2024-01-27T13:26:59;15.40;96.30
43089;DHT22;28709;52.030;5.652;2024-01-27T13:29:25;15.30;96.10
43089;DHT22;28709;52.030;5.652;2024-01-27T13:31:52;15.10;96.20
43089;DHT22;28709;52.030;5.652;2024-01-27T13:34:18;15.00;96.30
43089;DHT22;28709;52.030;5.652;2024-01-27T13:36:44;14.90;96.60
43089;DHT22;28709;52.030;5.652;2024-01-27T13:39:09;14.50;96.80
43089;DHT22;28709;52.030;5.652;2024-01-27T13:41:35;14.20;96.80
43089;DHT22;28709;52.030;5.652;2024-01-27T13:44:00;13.60;97.00
43089;DHT22;28709;52.030;5.652;2024-01-27T13:46:26;13.00;97.80
43089;DHT22;28709;52.030;5.652;2024-01-27T13:48:52;12.50;98.50
43089;DHT22;28709;52.030;5.652;2024-01-27T13:51:18;12.40;98.80
43089;DHT22;28709;52.030;5.652;2024-01-27T13:53:43;12.30;99.10
43089;DHT22;28709;52.030;5.652;2024-01-27T13:56:09;12.30;99.40
43089;DHT22;28709;52.030;5.652;2024-01-27T13:58:35;12.70;99.30
43089;DHT22;28709;52.030;5.652;2024-01-27T14:01:00;13.20;99.20
43089;DHT22;28709;52.030;5.652;2024-01-27T14:03:26;13.40;98.40
43089;DHT22;28709;52.030;5.652;2024-01-27T14:05:52;13.20;98.50
43089;DHT22;28709;52.030;5.652;2024-01-27T14:08:17;13.10;98.80
43089;DHT22;28709;52.030;5.652;2024-01-27T14:10:44;13.10;99.20
43089;DHT22;28709;52.030;5.652;2024-01-27T14:13:10;13.20;99.10
43089;DHT22;28709;52.030;5.652;2024-01-27T14:15:36;13.10;98.70
43089;DHT22;28709;52.030;5.652;2024-01-27T14:18:03;12.50;98.60
43089;DHT22;28709;52.030;5.652;2024-01-27T14:20:34;11.70;99.20
43089;DHT22;28709;52.030;5.652;2024-01-27T14:23:03;11.10;99.90
43089;DHT22;28709;52.030;5.652;2024-01-27T14:25:28;10.50;99.90
43089;DHT22;28709;52.030;5.652;2024-01-27T14:27:54;10.00;99.90
43089;DHT22;28709;52.030;5.652;2024-01-27T14:30:20;9.70;99.90
43089;DHT22;28709;52.030;5.652;2024-01-27T14:32:46;9.40;99.90
43089;DHT22;28709;52.030;5.652;2024-01-27T14:35:12;9.20;99.90
43089;DHT22;28709;52.030;5.652;2024-01-27T14:37:37;9.10;99.90
43089;DHT22;28709;52.030;5.652;2024-01-27T14:40:04;9.00;99.90
43089;DHT22;28709;52.030;5.652;2024-01-27T14:42:30;8.90;99.90
43089;DHT22;28709;52.030;5.652;2024-01-27T14:44:56;8.80;99.90
43089;DHT22;28709;52.030;5.652;2024-01-27T14:47:21;8.70;99.90
43089;DHT22;28709;52.030;5.652;2024-01-27T14:49:47;8.70;99.90
43089;DHT22;28709;52.030;5.652;2024-01-27T14:52:13;8.60;99.90
43089;DHT22;28709;52.030;5.652;2024-01-27T14:54:39;8.60;99.90
43089;DHT22;28709;52.030;5.652;2024-01-27T14:57:05;8.50;99.90
43089;DHT22;28709;52.030;5.652;2024-01-27T14:59:35;8.40;99.90
43089;DHT22;28709;52.030;5.652;2024-01-27T15:02:01;8.30;99.90
43089;DHT22;28709;52.030;5.652;2024-01-27T15:04:27;8.20;99.90
43089;DHT22;28709;52.030;5.652;2024-01-27T15:06:54;8.10;99.90
43089;DHT22;28709;52.030;5.652;2024-01-27T15:09:20;8.00;99.90
43089;DHT22;28709;52.030;5.652;2024-01-27T15:11:46;8.00;99.90
43089;DHT22;28709;52.030;5.652;2024-01-27T15:14:12;7.90;99.90
43089;DHT22;28709;52.030;5.652;2024-01-27T15:16:38;7.80;99.90
43089;DHT22;28709;52.030;5.652;2024-01-27T15:19:04;7.70;99.90
43089;DHT22;28709;52.030;5.652;2024-01-27T15:21:30;7.70;99.90
43089;DHT22;28709;52.030;5.652;2024-01-27T15:23:58;7.70;99.90
43089;DHT22;28709;52.030;5.652;2024-01-27T15:26:24;7.60;99.90
43089;DHT22;28709;52.030;5.652;2024-01-27T15:28:50;7.70;99.90
43089;DHT22;28709;52.030;5.652;2024-01-27T15:31:16;7.60;99.90
43089;DHT22;28709;52.030;5.652;2024-01-27T15:33:41;7.60;99.90
43089;DHT22;28709;52.030;5.652;2024-01-27T15:36:08;7.50;99.90